Terminal Aerodrome Forecast
Issued by NWS

Home | Current Version | Previous Version | Text Only | Print | Product List | Glossary On
Versions: 1 2 3 4 5 6 7 8 9 10 11 12 13 14 15 16 17 18 19 20 21 22 23 24
000
FTUS43 KAPX 210500
TAFTVC
TAF
KTVC 210520Z 2106/2206 VRB03KT P6SM SCT025
     FM210900 00000KT 2SM BR OVC005
     FM211400 VRB03KT 4SM BR OVC010
     FM211600 02005KT P6SM BKN025
     FM220200 00000KT 5SM BR VCSH BKN015=

USA.gov is the U.S. government's official web portal to all federal, state and local government web resources and services.